createdAt,value
2022-12-08T00:01:21.820Z,1.63
2022-12-08T00:03:49.990Z,1.64
2022-12-08T00:06:43.801Z,1.62
2022-12-08T00:09:23.146Z,1.63
2022-12-08T00:11:52.935Z,1.55
2022-12-08T00:14:21.316Z,1.61
2022-12-08T00:16:49.250Z,1.58
2022-12-08T00:19:17.283Z,1.55
2022-12-08T00:21:46.718Z,1.59
2022-12-08T00:24:15.006Z,1.60
2022-12-08T00:26:42.948Z,1.55
2022-12-08T00:29:17.054Z,1.68
2022-12-08T00:31:45.756Z,1.74
2022-12-08T00:34:13.882Z,1.76
2022-12-08T00:36:42.906Z,1.91
2022-12-08T00:39:12.857Z,1.95
2022-12-08T00:41:59.631Z,1.93
2022-12-08T00:44:27.611Z,2.12
2022-12-08T00:46:56.670Z,2.18
2022-12-08T00:49:24.720Z,2.20
2022-12-08T00:51:52.749Z,2.20
2022-12-08T00:54:23.004Z,2.27
2022-12-08T00:56:50.902Z,2.29
2022-12-08T00:59:18.890Z,2.16
2022-12-08T01:01:47.741Z,2.21
2022-12-08T01:04:17.850Z,2.17
2022-12-08T01:06:46.274Z,2.12
2022-12-08T01:09:15.069Z,1.93
2022-12-08T01:11:45.532Z,1.89
2022-12-08T01:14:13.870Z,1.88
2022-12-08T01:16:42.500Z,1.85
2022-12-08T01:19:11.469Z,1.82
2022-12-08T01:21:39.876Z,1.80
2022-12-08T01:24:12.463Z,1.79
2022-12-08T01:26:40.510Z,1.79
2022-12-08T01:29:10.128Z,1.85
2022-12-08T01:31:38.453Z,1.82
2022-12-08T01:34:06.642Z,1.81
2022-12-08T01:36:37.208Z,1.78
2022-12-08T01:39:07.543Z,1.80
2022-12-08T01:41:37.612Z,1.83
2022-12-08T01:44:44.105Z,1.81
2022-12-08T01:47:13.373Z,1.86
2022-12-08T01:49:41.226Z,1.88
2022-12-08T01:52:15.640Z,1.83
2022-12-08T01:54:50.628Z,1.88
2022-12-08T01:57:22.786Z,1.92
2022-12-08T01:59:55.918Z,1.87
2022-12-08T02:02:30.875Z,1.87
2022-12-08T02:04:58.755Z,1.85
2022-12-08T02:07:28.468Z,1.83
2022-12-08T02:09:58.227Z,1.81
2022-12-08T02:12:26.349Z,1.80
2022-12-08T02:15:05.377Z,1.80
2022-12-08T02:17:58.935Z,1.81
2022-12-08T02:20:59.534Z,1.83
2022-12-08T02:23:47.611Z,1.87
2022-12-08T02:26:55.117Z,1.84
2022-12-08T02:29:45.962Z,1.80
2022-12-08T02:32:33.866Z,1.82
2022-12-08T02:35:37.511Z,1.70
2022-12-08T02:38:15.153Z,1.69
2022-12-08T02:40:51.641Z,1.71
2022-12-08T02:43:30.723Z,1.76
2022-12-08T02:46:02.712Z,1.71
2022-12-08T02:48:31.937Z,1.68
2022-12-08T02:51:01.242Z,1.79
2022-12-08T02:53:31.576Z,1.78
2022-12-08T02:56:09.522Z,1.79
2022-12-08T02:58:56.218Z,1.82
2022-12-08T03:01:47.460Z,1.82
2022-12-08T03:04:24.398Z,1.79
2022-12-08T03:07:00.177Z,1.81
2022-12-08T03:09:36.426Z,1.89
2022-12-08T03:12:20.688Z,1.92
2022-12-08T03:14:53.686Z,1.96
2022-12-08T03:17:24.676Z,1.90
2022-12-08T03:19:55.658Z,1.84
2022-12-08T03:22:30.704Z,1.87
2022-12-08T03:25:00.592Z,1.80
2022-12-08T03:27:32.274Z,1.63
2022-12-08T03:30:03.872Z,1.58
2022-12-08T03:32:38.387Z,1.52
2022-12-08T03:35:09.991Z,1.53
2022-12-08T03:37:40.933Z,1.52
2022-12-08T03:40:11.684Z,1.47
2022-12-08T03:42:39.450Z,1.42
2022-12-08T03:45:08.458Z,1.38
2022-12-08T03:47:36.739Z,1.33
2022-12-08T03:50:14.166Z,1.28
2022-12-08T03:52:43.748Z,1.23
2022-12-08T03:55:11.956Z,1.15
2022-12-08T03:57:40.148Z,1.14
2022-12-08T04:00:14.929Z,1.06
2022-12-08T04:02:43.375Z,1.07
2022-12-08T04:05:11.169Z,1.12
2022-12-08T04:07:40.324Z,1.15
2022-12-08T04:10:13.542Z,1.06
2022-12-08T04:12:42.483Z,1.06
2022-12-08T04:15:12.561Z,1.02
2022-12-08T04:17:40.509Z,1.03
2022-12-08T04:20:11.941Z,0.98
2022-12-08T04:22:40.241Z,0.97
2022-12-08T04:25:10.187Z,1.04
2022-12-08T04:27:38.158Z,1.14
2022-12-08T04:30:07.852Z,1.16
2022-12-08T04:32:35.969Z,1.18
2022-12-08T04:35:03.785Z,1.21
2022-12-08T04:37:31.754Z,1.21
2022-12-08T04:39:59.715Z,1.27
2022-12-08T04:42:29.056Z,1.31
2022-12-08T04:44:56.916Z,1.30
2022-12-08T04:47:24.751Z,1.41
2022-12-08T04:49:53.597Z,1.37
2022-12-08T04:52:21.558Z,1.42
2022-12-08T04:54:49.586Z,1.40
2022-12-08T04:57:17.827Z,1.51
2022-12-08T04:59:47.130Z,1.37
2022-12-08T05:02:15.264Z,1.38
2022-12-08T05:04:43.287Z,1.36
2022-12-08T05:07:11.181Z,1.33
2022-12-08T05:09:39.046Z,1.38
2022-12-08T05:12:07.313Z,1.35
2022-12-08T05:14:35.251Z,1.33
2022-12-08T05:17:10.046Z,1.35
2022-12-08T05:19:38.649Z,1.32
2022-12-08T05:22:06.602Z,1.26
2022-12-08T05:24:34.413Z,1.25
2022-12-08T05:27:03.616Z,1.18
2022-12-08T05:29:31.580Z,1.16
2022-12-08T05:31:59.834Z,1.20
2022-12-08T05:34:29.197Z,1.28
2022-12-08T05:36:57.130Z,1.24
2022-12-08T05:39:27.536Z,1.28
2022-12-08T05:41:55.420Z,1.31
2022-12-08T05:44:23.398Z,1.32
2022-12-08T05:46:51.462Z,1.42
2022-12-08T05:49:19.706Z,1.32
2022-12-08T05:51:49.113Z,1.36
2022-12-08T05:54:17.289Z,1.41
2022-12-08T05:56:46.358Z,1.38
2022-12-08T05:59:14.206Z,1.33
2022-12-08T06:01:42.622Z,1.42
2022-12-08T06:04:10.965Z,1.38
2022-12-08T06:06:41.650Z,1.38
2022-12-08T06:09:12.472Z,1.35
2022-12-08T06:11:42.223Z,1.36
2022-12-08T06:14:13.019Z,1.35
2022-12-08T06:16:40.979Z,1.42
2022-12-08T06:19:09.085Z,1.37
2022-12-08T06:21:37.125Z,1.37
2022-12-08T06:24:07.073Z,1.41
2022-12-08T06:26:40.160Z,1.31
2022-12-08T06:29:09.043Z,1.29
2022-12-08T06:31:37.021Z,1.28
2022-12-08T06:34:18.056Z,1.36
2022-12-08T06:36:52.429Z,1.33
2022-12-08T06:39:34.821Z,1.32
2022-12-08T06:42:22.072Z,1.37
2022-12-08T06:44:51.885Z,1.46
2022-12-08T06:47:26.064Z,1.41
2022-12-08T06:49:54.213Z,1.42
2022-12-08T06:52:22.171Z,1.47
2022-12-08T06:54:50.302Z,1.48
2022-12-08T06:57:19.638Z,1.53
2022-12-08T06:59:47.562Z,1.55
2022-12-08T07:02:15.482Z,1.66
2022-12-08T07:04:43.523Z,1.64
2022-12-08T07:07:11.591Z,1.69
2022-12-08T07:09:39.463Z,1.66
2022-12-08T07:12:07.898Z,1.66
2022-12-08T07:14:37.138Z,1.66
2022-12-08T07:17:05.243Z,1.61
2022-12-08T07:19:33.931Z,1.58
2022-12-08T07:22:01.859Z,1.55
2022-12-08T07:24:30.208Z,1.53
2022-12-08T07:26:58.070Z,1.52
2022-12-08T07:29:26.595Z,1.50
2022-12-08T07:31:56.916Z,1.55
2022-12-08T07:34:24.959Z,1.58
2022-12-08T07:36:57.905Z,1.48
2022-12-08T07:39:26.146Z,1.56
2022-12-08T07:41:53.937Z,1.58
2022-12-08T07:44:21.847Z,1.52
2022-12-08T07:46:50.706Z,1.41
2022-12-08T07:49:19.965Z,1.34
2022-12-08T07:51:47.915Z,1.18
2022-12-08T07:54:16.075Z,1.07
2022-12-08T07:56:44.099Z,0.95
2022-12-08T07:59:12.067Z,0.83
2022-12-08T08:01:40.039Z,0.79
2022-12-08T08:04:11.261Z,0.83
2022-12-08T08:06:40.594Z,0.74
2022-12-08T08:09:08.903Z,0.74
2022-12-08T08:11:36.872Z,0.67
2022-12-08T08:14:05.986Z,0.42
2022-12-08T08:16:38.631Z,0.56
2022-12-08T08:19:06.868Z,0.36
2022-12-08T08:21:45.607Z,0.34
2022-12-08T08:24:15.869Z,0.35
2022-12-08T08:26:44.276Z,0.46
2022-12-08T08:29:12.427Z,0.41
2022-12-08T08:31:40.514Z,0.43
2022-12-08T08:34:09.201Z,0.34
2022-12-08T08:36:37.304Z,0.46
2022-12-08T08:39:05.785Z,0.24
2022-12-08T08:41:38.056Z,0.31
2022-12-08T08:44:11.239Z,0.45
2022-12-08T08:46:39.482Z,0.34
2022-12-08T08:49:07.599Z,0.25
2022-12-08T08:51:35.677Z,0.40
2022-12-08T08:54:03.692Z,0.43
2022-12-08T08:56:32.090Z,0.78
2022-12-08T08:59:03.140Z,0.83
2022-12-08T09:01:31.839Z,0.79
2022-12-08T09:03:59.942Z,0.67
2022-12-08T09:06:29.120Z,0.78
2022-12-08T09:08:57.693Z,0.68
2022-12-08T09:11:25.835Z,0.77
2022-12-08T09:13:55.247Z,0.68
2022-12-08T09:16:25.469Z,0.76
2022-12-08T09:18:53.687Z,0.74
2022-12-08T09:21:24.154Z,0.64
2022-12-08T09:23:53.658Z,0.57
2022-12-08T09:26:22.698Z,0.52
2022-12-08T09:28:50.884Z,0.43
2022-12-08T09:31:22.355Z,0.27
2022-12-08T09:33:52.786Z,0.34
2022-12-08T09:36:21.670Z,0.46
2022-12-08T09:38:51.253Z,0.51
2022-12-08T09:41:28.290Z,0.63
2022-12-08T09:44:08.401Z,0.72
2022-12-08T09:46:38.938Z,0.83
2022-12-08T09:49:15.292Z,1.06
2022-12-08T09:51:45.885Z,1.09
2022-12-08T09:54:20.006Z,1.21
2022-12-08T09:56:49.699Z,1.21
2022-12-08T09:59:25.169Z,1.41
2022-12-08T10:01:53.497Z,1.52
2022-12-08T10:04:27.082Z,1.64
2022-12-08T10:07:04.888Z,1.66
2022-12-08T10:09:40.674Z,1.70
2022-12-08T10:12:18.884Z,1.71
2022-12-08T10:14:55.406Z,1.78
2022-12-08T10:17:26.736Z,1.88
2022-12-08T10:20:03.822Z,2.40
2022-12-08T10:22:38.654Z,3.16
2022-12-08T10:25:16.788Z,3.44
2022-12-08T10:27:44.783Z,3.71
2022-12-08T10:30:14.928Z,3.77
2022-12-08T10:32:46.852Z,3.42
2022-12-08T10:35:18.384Z,3.22
2022-12-08T10:37:58.383Z,3.31
2022-12-08T10:40:29.438Z,3.05
2022-12-08T10:43:00.200Z,2.90
2022-12-08T10:45:30.439Z,2.65
2022-12-08T10:48:02.573Z,2.62
2022-12-08T10:50:36.138Z,2.94
2022-12-08T10:53:13.520Z,2.81
2022-12-08T10:55:44.539Z,2.63
2022-12-08T10:58:30.445Z,2.71
2022-12-08T11:01:04.240Z,2.62
2022-12-08T11:03:35.637Z,3.05
2022-12-08T11:06:17.092Z,3.61
2022-12-08T11:08:52.126Z,3.82
2022-12-08T11:11:27.609Z,4.41
2022-12-08T11:13:58.342Z,4.92
2022-12-08T11:16:26.886Z,5.41
2022-12-08T11:18:59.455Z,4.80
2022-12-08T11:21:37.459Z,4.86
2022-12-08T11:24:26.736Z,4.43
2022-12-08T11:27:00.394Z,4.40
2022-12-08T11:29:29.519Z,4.60
2022-12-08T11:32:01.785Z,4.96
2022-12-08T11:34:36.024Z,4.46
2022-12-08T11:37:09.726Z,4.17
2022-12-08T11:39:46.005Z,3.82
2022-12-08T11:42:17.452Z,3.24
2022-12-08T11:44:51.591Z,3.17
2022-12-08T11:47:25.755Z,3.22
2022-12-08T11:50:00.558Z,3.17
2022-12-08T11:52:35.051Z,3.31
2022-12-08T11:55:26.764Z,3.13
2022-12-08T11:57:58.277Z,3.40
2022-12-08T12:00:27.808Z,3.47
2022-12-08T12:03:02.604Z,3.65
2022-12-08T12:06:08.683Z,3.77
2022-12-08T12:08:43.855Z,3.80
2022-12-08T12:11:42.061Z,3.55
2022-12-08T12:14:22.677Z,3.41
2022-12-08T12:17:03.242Z,3.42
2022-12-08T12:19:36.143Z,3.44
2022-12-08T12:22:15.352Z,3.53
2022-12-08T12:24:50.471Z,3.62
2022-12-08T12:27:27.241Z,3.73
2022-12-08T12:30:00.047Z,3.69
2022-12-08T12:32:41.246Z,3.65
2022-12-08T12:35:20.387Z,3.60
2022-12-08T12:38:01.396Z,3.57
2022-12-08T12:40:44.778Z,3.58
2022-12-08T12:43:25.729Z,3.71
2022-12-08T12:46:41.667Z,3.57
2022-12-08T12:49:53.442Z,4.14
2022-12-08T12:52:44.970Z,4.51
2022-12-08T12:55:54.786Z,5.28
2022-12-08T12:58:44.386Z,5.77
2022-12-08T13:01:52.074Z,5.69
2022-12-08T13:04:20.712Z,6.49
2022-12-08T13:06:51.149Z,6.36
2022-12-08T13:09:28.350Z,6.59
2022-12-08T13:11:59.302Z,6.12
2022-12-08T13:14:47.535Z,6.70
2022-12-08T13:17:21.039Z,5.91
2022-12-08T13:19:59.260Z,5.82
2022-12-08T13:23:06.483Z,6.76
2022-12-08T13:25:52.254Z,6.19
2022-12-08T13:28:26.939Z,5.75
2022-12-08T13:30:59.001Z,6.02
2022-12-08T13:33:33.687Z,5.44
2022-12-08T13:36:18.351Z,5.05
2022-12-08T13:38:50.037Z,4.79
2022-12-08T13:41:21.619Z,4.32
2022-12-08T13:44:50.830Z,3.66
2022-12-08T13:47:32.254Z,3.59
2022-12-08T13:58:54.111Z,5.05
2022-12-08T14:01:48.533Z,4.89
2022-12-08T14:05:18.216Z,4.29
2022-12-08T14:07:57.944Z,3.96
2022-12-08T14:10:29.344Z,3.82
2022-12-08T14:13:01.706Z,3.67
2022-12-08T14:15:38.317Z,3.41
2022-12-08T14:18:08.900Z,3.22
2022-12-08T14:21:12.114Z,2.98
2022-12-08T14:23:50.518Z,2.69
2022-12-08T14:26:19.603Z,2.67
2022-12-08T14:28:50.603Z,2.47
2022-12-08T14:31:19.609Z,2.54
2022-12-08T14:33:56.588Z,2.44
2022-12-08T14:36:26.954Z,2.46
2022-12-08T14:38:58.891Z,2.51
2022-12-08T14:44:34.796Z,2.45
2022-12-08T14:47:08.619Z,2.44
2022-12-08T14:49:38.834Z,2.38
2022-12-08T14:52:12.157Z,2.35
2022-12-08T14:54:43.723Z,2.36
2022-12-08T14:57:15.056Z,2.17
2022-12-08T14:59:44.730Z,2.03
2022-12-08T15:02:27.152Z,1.81
2022-12-08T15:05:09.935Z,1.42
2022-12-08T15:07:49.162Z,1.00
2022-12-08T15:10:38.130Z,0.93
2022-12-08T15:13:45.014Z,0.80
2022-12-08T15:16:38.833Z,0.55
2022-12-08T15:19:27.776Z,0.43
2022-12-08T15:21:59.232Z,0.34
2022-12-08T15:24:35.809Z,-0.04
2022-12-08T15:27:19.269Z,0.08
2022-12-08T15:29:48.260Z,0.12
2022-12-08T15:32:20.100Z,0.38
2022-12-08T15:34:48.577Z,0.03
2022-12-08T15:37:21.715Z,-0.30
2022-12-08T15:39:50.778Z,-0.37
2022-12-08T15:42:20.226Z,-0.29
2022-12-08T15:44:48.211Z,-0.24
2022-12-08T15:47:19.003Z,-0.09
2022-12-08T15:49:47.865Z,-0.13
2022-12-08T15:52:17.284Z,-0.10
2022-12-08T15:54:45.313Z,-0.53
2022-12-08T15:57:44.239Z,-0.80
2022-12-08T16:04:13.870Z,-0.88
2022-12-08T16:09:14.679Z,-0.29
2022-12-08T16:12:12.250Z,-0.61
2022-12-08T16:15:48.161Z,-0.57
2022-12-08T16:17:34.237Z,-0.91
2022-12-08T16:20:03.501Z,-1.12
2022-12-08T16:25:23.258Z,-1.66
2022-12-08T16:28:17.463Z,-1.83
2022-12-08T16:30:44.351Z,-1.93
2022-12-08T16:33:17.913Z,-1.79
2022-12-08T16:35:46.044Z,-1.62
2022-12-08T16:38:16.987Z,-1.49
2022-12-08T16:41:05.920Z,-1.36
2022-12-08T16:43:34.317Z,-1.45
2022-12-08T16:46:04.216Z,-1.70
2022-12-08T16:48:34.316Z,-1.81
2022-12-08T16:51:04.475Z,-1.76
2022-12-08T16:53:33.750Z,-1.83
2022-12-08T16:56:03.426Z,-2.13
2022-12-08T16:58:31.430Z,-2.17
2022-12-08T17:01:01.561Z,-2.29
2022-12-08T17:03:31.351Z,-2.04
2022-12-08T17:05:59.156Z,-2.04
2022-12-08T17:08:27.362Z,-1.89
2022-12-08T17:11:08.178Z,-1.89
2022-12-08T17:13:36.995Z,-1.68
2022-12-08T17:16:10.927Z,-1.45
2022-12-08T17:18:40.623Z,-1.25
2022-12-08T17:21:12.371Z,-0.48
2022-12-08T17:23:41.267Z,-0.14
2022-12-08T17:26:10.178Z,0.12
2022-12-08T17:29:02.489Z,0.32
2022-12-08T17:31:34.525Z,0.44
2022-12-08T17:34:09.548Z,0.55
2022-12-08T17:36:38.070Z,0.67
2022-12-08T17:39:08.644Z,0.53
2022-12-08T17:41:40.766Z,0.51
2022-12-08T17:44:13.003Z,0.47
2022-12-08T17:46:43.441Z,0.61
2022-12-08T17:49:18.453Z,0.49
2022-12-08T17:51:49.875Z,0.61
2022-12-08T17:54:20.150Z,0.63
2022-12-08T17:56:48.305Z,0.59
2022-12-08T17:59:17.077Z,0.63
2022-12-08T18:01:45.124Z,0.64
2022-12-08T18:04:14.567Z,0.66
2022-12-08T18:06:43.469Z,0.66
2022-12-08T18:09:16.296Z,0.50
2022-12-08T18:11:49.532Z,0.67
2022-12-08T18:14:27.282Z,0.73
2022-12-08T18:16:55.559Z,0.71
2022-12-08T18:19:29.179Z,0.68
2022-12-08T18:22:06.705Z,0.82
2022-12-08T18:24:37.516Z,0.91
2022-12-08T18:27:06.114Z,0.83
2022-12-08T18:29:40.053Z,0.74
2022-12-08T18:32:10.645Z,0.61
2022-12-08T18:34:39.993Z,0.34
2022-12-08T18:37:08.982Z,0.23
2022-12-08T18:39:37.554Z,-0.27
2022-12-08T18:42:22.989Z,-0.45
2022-12-08T18:44:52.006Z,-0.76
2022-12-08T18:47:23.634Z,-0.55
2022-12-08T18:49:56.287Z,-1.02
2022-12-08T18:52:31.750Z,-1.33
2022-12-08T18:55:08.400Z,-1.24
2022-12-08T18:57:38.249Z,-0.98
2022-12-08T19:00:11.364Z,-1.44
2022-12-08T19:02:40.591Z,-1.31
2022-12-08T19:05:15.312Z,-1.75
2022-12-08T19:07:45.653Z,-1.76
2022-12-08T19:10:13.716Z,-1.93
2022-12-08T19:12:42.306Z,-1.69
2022-12-08T19:15:11.617Z,-1.39
2022-12-08T19:17:41.003Z,-1.50
2022-12-08T19:20:15.611Z,-1.56
2022-12-08T19:22:51.236Z,-1.44
2022-12-08T19:25:21.280Z,-1.54
2022-12-08T19:27:58.256Z,-1.59
2022-12-08T19:30:26.610Z,-1.71
2022-12-08T19:36:44.601Z,-1.71
2022-12-08T19:43:19.009Z,-1.54
2022-12-08T19:45:50.437Z,-1.48
2022-12-08T19:48:21.495Z,-1.18
2022-12-08T19:50:49.832Z,-1.04
2022-12-08T19:53:21.221Z,-1.09
2022-12-08T19:55:49.329Z,-1.43
2022-12-08T19:58:20.486Z,-1.60
2022-12-08T20:00:48.612Z,-1.70
2022-12-08T20:03:18.050Z,-1.98
2022-12-08T20:05:47.557Z,-2.24
2022-12-08T20:08:26.988Z,-2.37
2022-12-08T20:11:02.114Z,-1.98
2022-12-08T20:13:44.739Z,-1.72
2022-12-08T20:16:13.788Z,-1.61
2022-12-08T20:18:43.687Z,-1.48
2022-12-08T20:21:19.521Z,-1.29
2022-12-08T20:23:49.680Z,-0.99
2022-12-08T20:26:27.747Z,-1.04
2022-12-08T20:28:59.524Z,-1.16
2022-12-08T20:31:38.420Z,-1.00
2022-12-08T20:34:06.665Z,-1.14
2022-12-08T20:36:34.847Z,-0.94
2022-12-08T20:39:16.027Z,-0.95
2022-12-08T20:41:57.794Z,-1.24
2022-12-08T20:44:47.054Z,-1.26
2022-12-08T20:47:16.529Z,-1.15
2022-12-08T20:49:44.552Z,-1.18
2022-12-08T20:52:15.599Z,-0.88
2022-12-08T20:54:47.693Z,-0.61
2022-12-08T20:57:20.193Z,-0.59
2022-12-08T20:59:50.347Z,-0.57
2022-12-08T21:02:19.485Z,-0.54
2022-12-08T21:04:51.122Z,-0.45
2022-12-08T21:07:21.684Z,-0.41
2022-12-08T21:09:53.923Z,-0.44
2022-12-08T21:12:36.079Z,-0.51
2022-12-08T21:15:08.425Z,-0.40
2022-12-08T21:17:41.461Z,-0.45
2022-12-08T21:20:19.550Z,-0.41
2022-12-08T21:22:53.749Z,-0.44
2022-12-08T21:25:23.520Z,-0.31
2022-12-08T21:27:55.673Z,-0.41
2022-12-08T21:30:33.812Z,-0.43
2022-12-08T21:33:03.962Z,-0.36
2022-12-08T21:35:32.778Z,-0.44
2022-12-08T21:38:00.670Z,-0.50
2022-12-08T21:40:32.368Z,-0.39
2022-12-08T21:43:02.447Z,-0.63
2022-12-08T21:45:34.256Z,-0.81
2022-12-08T21:50:53.417Z,-1.19
2022-12-08T21:53:31.417Z,-1.58
2022-12-08T21:56:06.173Z,-1.44
2022-12-08T21:58:40.299Z,-1.35
2022-12-08T22:01:09.757Z,-1.39
2022-12-08T22:03:45.084Z,-1.59
2022-12-08T22:06:15.195Z,-1.76
2022-12-08T22:08:47.928Z,-1.67
2022-12-08T22:11:17.401Z,-1.52
2022-12-08T22:13:47.009Z,-1.68
2022-12-08T22:16:16.079Z,-1.89
2022-12-08T22:18:47.783Z,-1.92
2022-12-08T22:21:17.207Z,-1.96
2022-12-08T22:23:46.375Z,-2.28
2022-12-08T22:26:14.765Z,-2.49
2022-12-08T22:28:44.416Z,-2.58
2022-12-08T22:31:16.610Z,-2.26
2022-12-08T22:33:48.897Z,-2.06
2022-12-08T22:36:19.881Z,-2.14
2022-12-08T22:38:50.135Z,-1.98
2022-12-08T22:41:21.851Z,-2.25
2022-12-08T22:43:52.369Z,-2.43
2022-12-08T22:46:23.831Z,-2.19
2022-12-08T22:49:14.343Z,-2.50
2022-12-08T22:51:48.521Z,-2.85
2022-12-08T22:54:17.103Z,-3.12
2022-12-08T22:56:45.113Z,-3.41
2022-12-08T22:59:13.181Z,-3.20
2022-12-08T23:01:44.456Z,-3.04
2022-12-08T23:04:18.596Z,-2.89
2022-12-08T23:07:06.946Z,-2.40
2022-12-08T23:09:35.030Z,-2.47
2022-12-08T23:12:03.235Z,-2.58
2022-12-08T23:14:31.371Z,-2.61
2022-12-08T23:17:07.560Z,-2.65
2022-12-08T23:19:36.637Z,-2.86
2022-12-08T23:22:04.765Z,-2.87
2022-12-08T23:24:34.691Z,-2.79
2022-12-08T23:27:03.166Z,-2.72
2022-12-08T23:29:31.407Z,-2.62
2022-12-08T23:32:00.886Z,-2.59
2022-12-08T23:34:29.133Z,-2.70
2022-12-08T23:36:58.561Z,-2.84
2022-12-08T23:39:29.379Z,-2.61
2022-12-08T23:42:16.155Z,-2.01
2022-12-08T23:44:50.951Z,-2.05
2022-12-08T23:47:22.588Z,-2.11
2022-12-08T23:50:12.789Z,-2.18
2022-12-08T23:52:48.323Z,-2.21
2022-12-08T23:55:59.177Z,-2.32
2022-12-08T23:59:05.384Z,-2.42
